Jersey Village, Texas
Current Conditions -  °F | °C
As of 4:35 PM on Monday 22 Dec 2014 (Local Time) from KMCJ Reporting Station
Clear Clear  
Wind Chill: 72°   Ceiling: Unl
Heat Index: 72°   Visibility: NA
Dew Point: 59°   Wind: 7mph
Humidity: 64%   Direction: 210°SSW
Pressure: 29.59"   Gusts: 17mph
Location:  29.8565°N, 95.5841°W
Report Text: KMCJ 222235Z AUTO 21006G15KT 020V040 CLR 22/15 A2959 RMK AO1
Loading
Personal Weather Stations






























Interactive Weather Map New forecast layout! Learn more

10-Day Weather Forecast

Advertisements
Track Severe Weather on mobile